EJA211 KDFW-KMIA
Flight info
| Callsign | EJA211 |
|---|---|
| Flight time | 2h 14m |
| Altitude | 39000 |
| Route | MRSSH3 ZALEA HRV/N0456F410 Q105 BLVNS Y290 DOWRY FROGZ5 |
| Aircraft | CL60/M-SBDE1E2E3FGHIJ1J4J5J7M3RWXYZ/LB1V1D1 |
Departure
| Time | 2026-05-06 21:43 |
|---|---|
| Airport | Dallas Fort Worth International Airport (KDFW) |
Arrival
| Time | 2026-05-06 23:57 |
|---|---|
| Airport | Miami International Airport (KMIA) |
| Time | Latitude | Longitude | Altitude | Speed | Heading |
|---|---|---|---|---|---|
| 2026-05-06 21:07 | 32.88740 | -97.01908 | 543 ft | 0 kts | 180° |
| 2026-05-06 21:34 | 32.88739 | -97.01908 | 542 ft | 0 kts | 180° |
| 2026-05-06 21:34 | 32.88720 | -97.01908 | 543 ft | 0 kts | 180° |
| 2026-05-06 21:35 | 32.88701 | -97.01913 | 543 ft | 8 kts | 213° |
| 2026-05-06 21:35 | 32.88689 | -97.01978 | 545 ft | 3 kts | 274° |
| 2026-05-06 21:35 | 32.88690 | -97.02016 | 546 ft | 5 kts | 270° |
| 2026-05-06 21:35 | 32.88689 | -97.02065 | 547 ft | 6 kts | 269° |
| 2026-05-06 21:36 | 32.88679 | -97.02120 | 548 ft | 6 kts | 251° |
| 2026-05-06 21:36 | 32.88667 | -97.02180 | 549 ft | 7 kts | 268° |
| 2026-05-06 21:36 | 32.88667 | -97.02191 | 549 ft | 0 kts | 272° |
| 2026-05-06 21:38 | 32.88668 | -97.02235 | 550 ft | 11 kts | 270° |
| 2026-05-06 21:38 | 32.88637 | -97.02297 | 552 ft | 13 kts | 187° |
| 2026-05-06 21:38 | 32.88512 | -97.02297 | 555 ft | 20 kts | 182° |
| 2026-05-06 21:39 | 32.88374 | -97.02298 | 557 ft | 20 kts | 180° |
| 2026-05-06 21:39 | 32.88230 | -97.02298 | 560 ft | 21 kts | 180° |
| 2026-05-06 21:39 | 32.88078 | -97.02299 | 563 ft | 22 kts | 180° |
| 2026-05-06 21:39 | 32.87927 | -97.02299 | 565 ft | 18 kts | 183° |
| 2026-05-06 21:40 | 32.87889 | -97.02368 | 565 ft | 13 kts | 282° |
| 2026-05-06 21:40 | 32.87901 | -97.02487 | 565 ft | 16 kts | 273° |
| 2026-05-06 21:40 | 32.87901 | -97.02631 | 565 ft | 18 kts | 271° |
| 2026-05-06 21:40 | 32.87902 | -97.02795 | 564 ft | 20 kts | 270° |
| 2026-05-06 21:41 | 32.87903 | -97.02862 | 564 ft | 4 kts | 270° |
| 2026-05-06 21:41 | 32.87903 | -97.02870 | 564 ft | 0 kts | 270° |
| 2026-05-06 21:41 | 32.87903 | -97.02909 | 564 ft | 8 kts | 270° |
| 2026-05-06 21:41 | 32.87915 | -97.02993 | 564 ft | 11 kts | 320° |
| 2026-05-06 21:42 | 32.87967 | -97.03006 | 565 ft | 0 kts | 1° |
| 2026-05-06 21:42 | 32.88101 | -97.03009 | 566 ft | 60 kts | 359° |
| 2026-05-06 21:42 | 32.88848 | -97.03000 | 592 ft | 149 kts | 354° |
| 2026-05-06 21:42 | 32.89983 | -97.03143 | 1132 ft | 181 kts | 355° |
| 2026-05-06 21:43 | 32.91282 | -97.03285 | 1938 ft | 203 kts | 1° |
| 2026-05-06 21:43 | 32.92657 | -97.03125 | 2693 ft | 201 kts | 11° |
| 2026-05-06 21:43 | 32.93986 | -97.02778 | 3377 ft | 200 kts | 15° |
| 2026-05-06 21:43 | 32.95310 | -97.02203 | 4077 ft | 221 kts | 20° |
| 2026-05-06 21:44 | 32.96768 | -97.01597 | 5067 ft | 241 kts | 17° |
| 2026-05-06 21:44 | 32.98401 | -97.01001 | 6084 ft | 260 kts | 13° |
| 2026-05-06 21:44 | 33.00069 | -97.00058 | 7074 ft | 285 kts | 34° |
| 2026-05-06 21:44 | 33.01356 | -96.98269 | 8201 ft | 299 kts | 63° |
| 2026-05-06 21:45 | 33.01757 | -96.95839 | 9300 ft | 310 kts | 96° |
| 2026-05-06 21:45 | 33.01394 | -96.93369 | 10559 ft | 312 kts | 103° |
| 2026-05-06 21:45 | 33.01112 | -96.90813 | 11779 ft | 317 kts | 98° |
| 2026-05-06 21:45 | 33.00866 | -96.88221 | 12870 ft | 322 kts | 103° |
| 2026-05-06 21:46 | 33.00336 | -96.85683 | 13906 ft | 318 kts | 119° |
| 2026-05-06 21:46 | 32.99299 | -96.83424 | 14961 ft | 311 kts | 134° |
| 2026-05-06 21:46 | 32.98069 | -96.81341 | 15981 ft | 313 kts | 136° |
| 2026-05-06 21:46 | 32.96779 | -96.79176 | 16535 ft | 333 kts | 136° |
| 2026-05-06 21:47 | 32.95407 | -96.76865 | 17164 ft | 349 kts | 135° |
| 2026-05-06 21:47 | 32.94011 | -96.74495 | 18043 ft | 354 kts | 136° |
| 2026-05-06 21:47 | 32.92591 | -96.72090 | 18777 ft | 363 kts | 136° |
| 2026-05-06 21:47 | 32.91136 | -96.69624 | 19545 ft | 370 kts | 135° |
| 2026-05-06 21:48 | 32.89651 | -96.67107 | 20319 ft | 376 kts | 135° |
| 2026-05-06 21:48 | 32.88144 | -96.64554 | 21020 ft | 383 kts | 135° |
| 2026-05-06 21:48 | 32.86605 | -96.61950 | 21706 ft | 390 kts | 135° |
| 2026-05-06 21:48 | 32.85036 | -96.59297 | 22376 ft | 396 kts | 135° |
| 2026-05-06 21:49 | 32.83447 | -96.56608 | 23083 ft | 400 kts | 135° |
| 2026-05-06 21:49 | 32.81844 | -96.53896 | 23812 ft | 404 kts | 135° |
| 2026-05-06 21:49 | 32.80226 | -96.51162 | 24535 ft | 407 kts | 135° |
| 2026-05-06 21:49 | 32.78597 | -96.48409 | 25268 ft | 410 kts | 136° |
| 2026-05-06 21:50 | 32.76955 | -96.45640 | 25964 ft | 413 kts | 136° |
| 2026-05-06 21:50 | 32.75293 | -96.42840 | 26590 ft | 417 kts | 136° |
| 2026-05-06 21:50 | 32.73621 | -96.40022 | 27262 ft | 420 kts | 137° |
| 2026-05-06 21:50 | 32.71940 | -96.37189 | 27917 ft | 422 kts | 136° |
| 2026-05-06 21:51 | 32.70451 | -96.34122 | 28486 ft | 442 kts | 124° |
| 2026-05-06 21:51 | 32.69533 | -96.30570 | 29037 ft | 463 kts | 107° |
| 2026-05-06 21:51 | 32.69209 | -96.26715 | 29465 ft | 475 kts | 101° |
| 2026-05-06 21:51 | 32.68957 | -96.22786 | 29865 ft | 481 kts | 102° |
| 2026-05-06 21:52 | 32.68697 | -96.18817 | 30304 ft | 485 kts | 102° |
| 2026-05-06 21:52 | 32.68433 | -96.14829 | 30783 ft | 487 kts | 101° |
| 2026-05-06 21:52 | 32.68166 | -96.10811 | 31126 ft | 493 kts | 101° |
| 2026-05-06 21:52 | 32.67894 | -96.06743 | 31534 ft | 497 kts | 102° |
| 2026-05-06 21:53 | 32.67619 | -96.02645 | 31946 ft | 500 kts | 101° |
| 2026-05-06 21:53 | 32.67339 | -95.98520 | 32287 ft | 504 kts | 101° |
| 2026-05-06 21:53 | 32.67058 | -95.94377 | 32631 ft | 508 kts | 101° |
| 2026-05-06 21:53 | 32.66773 | -95.90194 | 33026 ft | 510 kts | 102° |
| 2026-05-06 21:54 | 32.66486 | -95.86016 | 33449 ft | 512 kts | 101° |
| 2026-05-06 21:54 | 32.66198 | -95.81833 | 33813 ft | 515 kts | 102° |
| 2026-05-06 21:54 | 32.65906 | -95.77608 | 34257 ft | 515 kts | 101° |
| 2026-05-06 21:54 | 32.65612 | -95.73379 | 34717 ft | 515 kts | 101° |
| 2026-05-06 21:55 | 32.65318 | -95.69167 | 35200 ft | 514 kts | 100° |
| 2026-05-06 21:55 | 32.65023 | -95.64966 | 35637 ft | 514 kts | 101° |
| 2026-05-06 21:55 | 32.64725 | -95.60751 | 36064 ft | 514 kts | 100° |
| 2026-05-06 21:55 | 32.64427 | -95.56546 | 36447 ft | 514 kts | 101° |
| 2026-05-06 21:56 | 32.64125 | -95.52326 | 36800 ft | 515 kts | 100° |
| 2026-05-06 21:56 | 32.63821 | -95.48109 | 37064 ft | 517 kts | 101° |
| 2026-05-06 21:56 | 32.63516 | -95.43873 | 37403 ft | 518 kts | 101° |
| 2026-05-06 21:56 | 32.63208 | -95.39628 | 37741 ft | 518 kts | 99° |
| 2026-05-06 21:57 | 32.62898 | -95.35373 | 37996 ft | 520 kts | 101° |
| 2026-05-06 21:57 | 32.62587 | -95.31118 | 38341 ft | 519 kts | 101° |
| 2026-05-06 21:57 | 32.62275 | -95.26871 | 38585 ft | 519 kts | 101° |
| 2026-05-06 21:57 | 32.61959 | -95.22607 | 38744 ft | 522 kts | 101° |
| 2026-05-06 21:58 | 32.61643 | -95.18342 | 38983 ft | 523 kts | 100° |
| 2026-05-06 21:58 | 32.61321 | -95.14039 | 38966 ft | 527 kts | 101° |
| 2026-05-06 21:58 | 32.60671 | -95.05392 | 38960 ft | 528 kts | 100° |
| 2026-05-06 21:59 | 32.60019 | -94.96771 | 38956 ft | 524 kts | 101° |
| 2026-05-06 21:59 | 32.59357 | -94.88136 | 38971 ft | 534 kts | 100° |
| 2026-05-06 22:00 | 32.58602 | -94.79324 | 38947 ft | 542 kts | 105° |
| 2026-05-06 22:00 | 32.56663 | -94.70781 | 38949 ft | 540 kts | 117° |
| 2026-05-06 22:01 | 32.54264 | -94.62299 | 38950 ft | 549 kts | 116° |
| 2026-05-06 22:01 | 32.51839 | -94.53725 | 38945 ft | 554 kts | 116° |
| 2026-05-06 22:02 | 32.49388 | -94.45075 | 38947 ft | 555 kts | 116° |
| 2026-05-06 22:02 | 32.46944 | -94.36471 | 38946 ft | 553 kts | 115° |
| 2026-05-06 22:03 | 32.44504 | -94.27909 | 38946 ft | 551 kts | 116° |
| 2026-05-06 22:03 | 32.42055 | -94.19343 | 38947 ft | 551 kts | 116° |
| 2026-05-06 22:04 | 32.39600 | -94.10784 | 38943 ft | 552 kts | 116° |
| 2026-05-06 22:04 | 32.37145 | -94.02247 | 38941 ft | 551 kts | 116° |
| 2026-05-06 22:05 | 32.34685 | -93.93719 | 38946 ft | 551 kts | 116° |
| 2026-05-06 22:05 | 32.32234 | -93.85247 | 38946 ft | 551 kts | 116° |
| 2026-05-06 22:06 | 32.29779 | -93.76782 | 38941 ft | 549 kts | 116° |
| 2026-05-06 22:06 | 32.27371 | -93.68505 | 38941 ft | 548 kts | 116° |
| 2026-05-06 22:07 | 32.24980 | -93.60311 | 38935 ft | 547 kts | 115° |
| 2026-05-06 22:07 | 32.22466 | -93.51912 | 38934 ft | 544 kts | 119° |
| 2026-05-06 22:08 | 32.19108 | -93.44461 | 38932 ft | 527 kts | 133° |
| 2026-05-06 22:08 | 32.14810 | -93.37722 | 38935 ft | 519 kts | 137° |
| 2026-05-06 22:09 | 32.10423 | -93.30992 | 38931 ft | 517 kts | 137° |
| 2026-05-06 22:09 | 32.06060 | -93.24312 | 38914 ft | 516 kts | 137° |
| 2026-05-06 22:10 | 32.01685 | -93.17629 | 38915 ft | 516 kts | 137° |
| 2026-05-06 22:10 | 31.97301 | -93.10944 | 38901 ft | 517 kts | 137° |
| 2026-05-06 22:11 | 31.92919 | -93.04273 | 38914 ft | 517 kts | 137° |
| 2026-05-06 22:11 | 31.88522 | -92.97590 | 38897 ft | 517 kts | 136° |
| 2026-05-06 22:12 | 31.84117 | -92.90907 | 38901 ft | 517 kts | 137° |
| 2026-05-06 22:12 | 31.79575 | -92.84471 | 38894 ft | 504 kts | 146° |
| 2026-05-06 22:13 | 31.76936 | -92.81855 | 38893 ft | 490 kts | 155° |
| 2026-05-06 22:13 | 31.74079 | -92.79803 | 38890 ft | 475 kts | 165° |
| 2026-05-06 22:13 | 31.68086 | -92.76842 | 38894 ft | 465 kts | 170° |
| 2026-05-06 22:14 | 31.62066 | -92.74030 | 38885 ft | 466 kts | 170° |
| 2026-05-06 22:14 | 31.56029 | -92.71234 | 38883 ft | 467 kts | 169° |
| 2026-05-06 22:15 | 31.49988 | -92.68451 | 38878 ft | 467 kts | 170° |
| 2026-05-06 22:15 | 31.43944 | -92.65681 | 38887 ft | 467 kts | 170° |
| 2026-05-06 22:16 | 31.37897 | -92.62906 | 38887 ft | 467 kts | 169° |
| 2026-05-06 22:16 | 31.31841 | -92.60135 | 38883 ft | 467 kts | 169° |
| 2026-05-06 22:17 | 31.25777 | -92.57388 | 38882 ft | 467 kts | 169° |
| 2026-05-06 22:17 | 31.19716 | -92.54648 | 38874 ft | 467 kts | 169° |
| 2026-05-06 22:18 | 31.13660 | -92.51917 | 38876 ft | 466 kts | 170° |
| 2026-05-06 22:18 | 31.07602 | -92.49203 | 38877 ft | 466 kts | 170° |
| 2026-05-06 22:19 | 31.01535 | -92.46499 | 38870 ft | 468 kts | 169° |
| 2026-05-06 22:19 | 30.95452 | -92.43797 | 38870 ft | 468 kts | 169° |
| 2026-05-06 22:20 | 30.89363 | -92.41101 | 38871 ft | 468 kts | 169° |
| 2026-05-06 22:20 | 30.83279 | -92.38430 | 38872 ft | 467 kts | 169° |
| 2026-05-06 22:21 | 30.77180 | -92.35742 | 38873 ft | 468 kts | 169° |
| 2026-05-06 22:21 | 30.71092 | -92.33077 | 38871 ft | 466 kts | 170° |
| 2026-05-06 22:22 | 30.65034 | -92.30427 | 38869 ft | 464 kts | 170° |
| 2026-05-06 22:22 | 30.58992 | -92.27787 | 38868 ft | 463 kts | 170° |
| 2026-05-06 22:23 | 30.52953 | -92.25178 | 38874 ft | 464 kts | 169° |
| 2026-05-06 22:23 | 30.47127 | -92.21623 | 38875 ft | 487 kts | 153° |
| 2026-05-06 22:24 | 30.44543 | -92.19038 | 38877 ft | 499 kts | 143° |
| 2026-05-06 22:24 | 30.42265 | -92.15955 | 38882 ft | 509 kts | 134° |
| 2026-05-06 22:24 | 30.38914 | -92.08620 | 38886 ft | 526 kts | 115° |
| 2026-05-06 22:25 | 30.37152 | -92.00356 | 38889 ft | 533 kts | 106° |
| 2026-05-06 22:25 | 30.35552 | -91.92009 | 38891 ft | 533 kts | 108° |
| 2026-05-06 22:26 | 30.33851 | -91.83686 | 38886 ft | 532 kts | 108° |
| 2026-05-06 22:26 | 30.32053 | -91.75410 | 38886 ft | 531 kts | 109° |
| 2026-05-06 22:27 | 30.30157 | -91.67170 | 38885 ft | 531 kts | 110° |
| 2026-05-06 22:27 | 30.28159 | -91.58978 | 38883 ft | 530 kts | 111° |
| 2026-05-06 22:28 | 30.26032 | -91.50863 | 38890 ft | 529 kts | 111° |
| 2026-05-06 22:28 | 30.23887 | -91.42750 | 38890 ft | 528 kts | 111° |
| 2026-05-06 22:29 | 30.21736 | -91.34650 | 38891 ft | 528 kts | 112° |
| 2026-05-06 22:29 | 30.19581 | -91.26565 | 38891 ft | 527 kts | 112° |
| 2026-05-06 22:30 | 30.17422 | -91.18498 | 38902 ft | 527 kts | 112° |
| 2026-05-06 22:30 | 30.15258 | -91.10437 | 38907 ft | 526 kts | 112° |
| 2026-05-06 22:31 | 30.13092 | -91.02395 | 38908 ft | 525 kts | 112° |
| 2026-05-06 22:31 | 30.10926 | -90.94378 | 38910 ft | 524 kts | 112° |
| 2026-05-06 22:32 | 30.08755 | -90.86370 | 38911 ft | 524 kts | 112° |
| 2026-05-06 22:32 | 30.06578 | -90.78362 | 38911 ft | 525 kts | 112° |
| 2026-05-06 22:33 | 30.04392 | -90.70341 | 38917 ft | 526 kts | 112° |
| 2026-05-06 22:33 | 30.02196 | -90.62309 | 38918 ft | 526 kts | 112° |
| 2026-05-06 22:34 | 29.99995 | -90.54278 | 38918 ft | 527 kts | 112° |
| 2026-05-06 22:34 | 29.97790 | -90.46254 | 38918 ft | 526 kts | 112° |
| 2026-05-06 22:35 | 29.95582 | -90.38241 | 38920 ft | 526 kts | 112° |
| 2026-05-06 22:35 | 29.93372 | -90.30242 | 38923 ft | 525 kts | 112° |
| 2026-05-06 22:36 | 29.91155 | -90.22238 | 38927 ft | 525 kts | 112° |
| 2026-05-06 22:36 | 29.88934 | -90.14242 | 38925 ft | 525 kts | 112° |
| 2026-05-06 22:37 | 29.86687 | -90.06263 | 38930 ft | 524 kts | 115° |
| 2026-05-06 22:37 | 29.83556 | -89.98841 | 38936 ft | 512 kts | 129° |
| 2026-05-06 22:38 | 29.79276 | -89.92439 | 38935 ft | 503 kts | 137° |
| 2026-05-06 22:38 | 29.74767 | -89.86285 | 38938 ft | 504 kts | 137° |
| 2026-05-06 22:39 | 29.70253 | -89.80132 | 38940 ft | 505 kts | 137° |
| 2026-05-06 22:39 | 29.65728 | -89.73974 | 38941 ft | 506 kts | 136° |
| 2026-05-06 22:40 | 29.61191 | -89.67813 | 38948 ft | 506 kts | 136° |
| 2026-05-06 22:40 | 29.56655 | -89.61661 | 38946 ft | 505 kts | 136° |
| 2026-05-06 22:41 | 29.49844 | -89.52445 | 39184 ft | 506 kts | 136° |
| 2026-05-06 22:41 | 29.47571 | -89.49374 | 39424 ft | 505 kts | 136° |
| 2026-05-06 22:42 | 29.45302 | -89.46310 | 39671 ft | 504 kts | 136° |
| 2026-05-06 22:42 | 29.43038 | -89.43256 | 39909 ft | 503 kts | 136° |
| 2026-05-06 22:42 | 29.40778 | -89.40210 | 40075 ft | 503 kts | 136° |
| 2026-05-06 22:42 | 29.38510 | -89.37157 | 40233 ft | 503 kts | 136° |
| 2026-05-06 22:43 | 29.36243 | -89.34107 | 40361 ft | 503 kts | 136° |
| 2026-05-06 22:43 | 29.33983 | -89.31067 | 40487 ft | 503 kts | 136° |
| 2026-05-06 22:43 | 29.31713 | -89.28018 | 40612 ft | 503 kts | 136° |
| 2026-05-06 22:43 | 29.29454 | -89.24985 | 40745 ft | 502 kts | 136° |
| 2026-05-06 22:44 | 29.27188 | -89.21945 | 40849 ft | 502 kts | 136° |
| 2026-05-06 22:44 | 29.22657 | -89.15875 | 40958 ft | 503 kts | 136° |
| 2026-05-06 22:45 | 29.18110 | -89.09792 | 40955 ft | 504 kts | 136° |
| 2026-05-06 22:45 | 29.13569 | -89.03726 | 40968 ft | 503 kts | 136° |
| 2026-05-06 22:46 | 29.09019 | -88.97657 | 40966 ft | 503 kts | 136° |
| 2026-05-06 22:46 | 29.04474 | -88.91603 | 40968 ft | 503 kts | 136° |
| 2026-05-06 22:47 | 28.99917 | -88.85544 | 40970 ft | 504 kts | 136° |
| 2026-05-06 22:47 | 28.95350 | -88.79480 | 40967 ft | 504 kts | 136° |
| 2026-05-06 22:48 | 28.90782 | -88.73423 | 40967 ft | 503 kts | 135° |
| 2026-05-06 22:48 | 28.86239 | -88.67373 | 40970 ft | 502 kts | 135° |
| 2026-05-06 22:49 | 28.81734 | -88.61325 | 40971 ft | 501 kts | 135° |
| 2026-05-06 22:49 | 28.77234 | -88.55292 | 40973 ft | 501 kts | 135° |
| 2026-05-06 22:50 | 28.72720 | -88.49252 | 40979 ft | 501 kts | 135° |
| 2026-05-06 22:50 | 28.68204 | -88.43217 | 40979 ft | 502 kts | 135° |
| 2026-05-06 22:51 | 28.63685 | -88.37187 | 40982 ft | 502 kts | 135° |
| 2026-05-06 22:51 | 28.59167 | -88.31167 | 40984 ft | 501 kts | 135° |
| 2026-05-06 22:52 | 28.54656 | -88.25166 | 40985 ft | 500 kts | 135° |
| 2026-05-06 22:52 | 28.50144 | -88.19171 | 40988 ft | 499 kts | 135° |
| 2026-05-06 22:53 | 28.45631 | -88.13185 | 40989 ft | 500 kts | 135° |
| 2026-05-06 22:53 | 28.41160 | -88.07160 | 40991 ft | 502 kts | 131° |
| 2026-05-06 22:54 | 28.37556 | -88.00346 | 40992 ft | 508 kts | 117° |
| 2026-05-06 22:54 | 28.35174 | -87.92805 | 40988 ft | 510 kts | 110° |
| 2026-05-06 22:55 | 28.32974 | -87.85171 | 40993 ft | 510 kts | 110° |
| 2026-05-06 22:55 | 28.30769 | -87.77546 | 40994 ft | 510 kts | 110° |
| 2026-05-06 22:56 | 28.28560 | -87.69924 | 40996 ft | 510 kts | 110° |
| 2026-05-06 22:56 | 28.26348 | -87.62313 | 40995 ft | 510 kts | 110° |
| 2026-05-06 22:57 | 28.24129 | -87.54695 | 40997 ft | 510 kts | 110° |
| 2026-05-06 22:57 | 28.21905 | -87.47078 | 40996 ft | 510 kts | 110° |
| 2026-05-06 22:58 | 28.19679 | -87.39475 | 40999 ft | 509 kts | 110° |
| 2026-05-06 22:58 | 28.17453 | -87.31886 | 41001 ft | 509 kts | 110° |
| 2026-05-06 22:59 | 28.15225 | -87.24310 | 41004 ft | 508 kts | 110° |
| 2026-05-06 22:59 | 28.12993 | -87.16739 | 41002 ft | 508 kts | 110° |
| 2026-05-06 23:00 | 28.10758 | -87.09175 | 41007 ft | 508 kts | 110° |
| 2026-05-06 23:00 | 28.08515 | -87.01604 | 41006 ft | 508 kts | 110° |
| 2026-05-06 23:01 | 28.06271 | -86.94042 | 41008 ft | 508 kts | 110° |
| 2026-05-06 23:01 | 28.04023 | -86.86486 | 41007 ft | 508 kts | 110° |
| 2026-05-06 23:02 | 28.01773 | -86.78942 | 41010 ft | 507 kts | 110° |
| 2026-05-06 23:02 | 27.99925 | -86.72656 | 41010 ft | 507 kts | 109° |
| 2026-05-06 23:03 | 27.97378 | -86.63839 | 41008 ft | 506 kts | 109° |
| 2026-05-06 23:03 | 27.95190 | -86.56288 | 41011 ft | 507 kts | 109° |
| 2026-05-06 23:04 | 27.92999 | -86.48746 | 41012 ft | 506 kts | 109° |
| 2026-05-06 23:04 | 27.90805 | -86.41212 | 41009 ft | 506 kts | 109° |
| 2026-05-06 23:05 | 27.88604 | -86.33671 | 41008 ft | 506 kts | 110° |
| 2026-05-06 23:05 | 27.86405 | -86.26152 | 41008 ft | 506 kts | 110° |
| 2026-05-06 23:06 | 27.84197 | -86.18620 | 41007 ft | 506 kts | 109° |
| 2026-05-06 23:06 | 27.81983 | -86.11088 | 41005 ft | 507 kts | 109° |
| 2026-05-06 23:07 | 27.79766 | -86.03560 | 41007 ft | 507 kts | 109° |
| 2026-05-06 23:07 | 27.77545 | -85.96037 | 41007 ft | 506 kts | 109° |
| 2026-05-06 23:08 | 27.75321 | -85.88522 | 41012 ft | 506 kts | 109° |
| 2026-05-06 23:08 | 27.73096 | -85.81016 | 41016 ft | 506 kts | 109° |
| 2026-05-06 23:09 | 27.70868 | -85.73520 | 41015 ft | 506 kts | 109° |
| 2026-05-06 23:09 | 27.68635 | -85.66025 | 41014 ft | 505 kts | 109° |
| 2026-05-06 23:10 | 27.66398 | -85.58533 | 41018 ft | 505 kts | 109° |
| 2026-05-06 23:10 | 27.64160 | -85.51051 | 41026 ft | 505 kts | 109° |
| 2026-05-06 23:11 | 27.61916 | -85.43568 | 41027 ft | 505 kts | 109° |
| 2026-05-06 23:11 | 27.59672 | -85.36092 | 41029 ft | 505 kts | 108° |
| 2026-05-06 23:12 | 27.58094 | -85.28402 | 41027 ft | 505 kts | 101° |
| 2026-05-06 23:12 | 27.56760 | -85.20673 | 41028 ft | 505 kts | 101° |
| 2026-05-06 23:13 | 27.55416 | -85.12929 | 41029 ft | 505 kts | 101° |
| 2026-05-06 23:13 | 27.54067 | -85.05203 | 41032 ft | 505 kts | 101° |
| 2026-05-06 23:14 | 27.52709 | -84.97454 | 41031 ft | 505 kts | 101° |
| 2026-05-06 23:14 | 27.51348 | -84.89719 | 41034 ft | 505 kts | 101° |
| 2026-05-06 23:15 | 27.49979 | -84.81970 | 41032 ft | 505 kts | 101° |
| 2026-05-06 23:15 | 27.48609 | -84.74241 | 41035 ft | 505 kts | 101° |
| 2026-05-06 23:16 | 27.47233 | -84.66510 | 41037 ft | 505 kts | 101° |
| 2026-05-06 23:16 | 27.45853 | -84.58786 | 41039 ft | 505 kts | 101° |
| 2026-05-06 23:17 | 27.44469 | -84.51064 | 41039 ft | 504 kts | 101° |
| 2026-05-06 23:17 | 27.43082 | -84.43351 | 41044 ft | 504 kts | 101° |
| 2026-05-06 23:18 | 27.41689 | -84.35629 | 41041 ft | 505 kts | 101° |
| 2026-05-06 23:18 | 27.40293 | -84.27920 | 41040 ft | 505 kts | 101° |
| 2026-05-06 23:19 | 27.38891 | -84.20203 | 41038 ft | 505 kts | 101° |
| 2026-05-06 23:19 | 27.37485 | -84.12491 | 41038 ft | 505 kts | 101° |
| 2026-05-06 23:20 | 27.36073 | -84.04771 | 41035 ft | 505 kts | 101° |
| 2026-05-06 23:20 | 27.34657 | -83.97052 | 41038 ft | 505 kts | 101° |
| 2026-05-06 23:21 | 27.33238 | -83.89341 | 41037 ft | 505 kts | 101° |
| 2026-05-06 23:21 | 27.31813 | -83.81626 | 41034 ft | 505 kts | 101° |
| 2026-05-06 23:22 | 27.30385 | -83.73921 | 41035 ft | 505 kts | 101° |
| 2026-05-06 23:22 | 27.28954 | -83.66224 | 41032 ft | 504 kts | 101° |
| 2026-05-06 23:23 | 27.27519 | -83.58525 | 41035 ft | 504 kts | 101° |
| 2026-05-06 23:23 | 27.26082 | -83.50846 | 41033 ft | 504 kts | 101° |
| 2026-05-06 23:24 | 27.24640 | -83.43158 | 41031 ft | 504 kts | 101° |
| 2026-05-06 23:24 | 27.23193 | -83.35474 | 41029 ft | 505 kts | 101° |
| 2026-05-06 23:25 | 27.21742 | -83.27792 | 41029 ft | 504 kts | 102° |
| 2026-05-06 23:25 | 27.20285 | -83.20101 | 41031 ft | 505 kts | 102° |
| 2026-05-06 23:26 | 27.19069 | -83.13698 | 41031 ft | 505 kts | 102° |
| 2026-05-06 23:26 | 27.17359 | -83.04726 | 41034 ft | 506 kts | 101° |
| 2026-05-06 23:27 | 27.15886 | -82.97024 | 41028 ft | 505 kts | 101° |
| 2026-05-06 23:27 | 27.14406 | -82.89347 | 41032 ft | 505 kts | 103° |
| 2026-05-06 23:28 | 27.12076 | -82.81948 | 41031 ft | 504 kts | 117° |
| 2026-05-06 23:28 | 27.08542 | -82.75198 | 41031 ft | 503 kts | 123° |
| 2026-05-06 23:29 | 27.04877 | -82.68541 | 41035 ft | 503 kts | 123° |
| 2026-05-06 23:29 | 27.01823 | -82.62995 | 41033 ft | 503 kts | 123° |
| 2026-05-06 23:29 | 27.00005 | -82.59695 | 41037 ft | 492 kts | 123° |
| 2026-05-06 23:30 | 26.97664 | -82.55448 | 41033 ft | 472 kts | 123° |
| 2026-05-06 23:30 | 26.94265 | -82.49290 | 41033 ft | 461 kts | 123° |
| 2026-05-06 23:31 | 26.90530 | -82.43545 | 41036 ft | 454 kts | 136° |
| 2026-05-06 23:31 | 26.85854 | -82.38834 | 40726 ft | 457 kts | 142° |
| 2026-05-06 23:31 | 26.83436 | -82.36522 | 40080 ft | 458 kts | 142° |
| 2026-05-06 23:32 | 26.81022 | -82.34209 | 39479 ft | 455 kts | 142° |
| 2026-05-06 23:32 | 26.78625 | -82.31915 | 38915 ft | 453 kts | 142° |
| 2026-05-06 23:32 | 26.76232 | -82.29625 | 38381 ft | 453 kts | 142° |
| 2026-05-06 23:32 | 26.73837 | -82.27335 | 37836 ft | 454 kts | 142° |
| 2026-05-06 23:33 | 26.71436 | -82.25039 | 37257 ft | 456 kts | 142° |
| 2026-05-06 23:33 | 26.69026 | -82.22737 | 36663 ft | 456 kts | 142° |
| 2026-05-06 23:33 | 26.66620 | -82.20439 | 36067 ft | 457 kts | 142° |
| 2026-05-06 23:33 | 26.64205 | -82.18133 | 35458 ft | 458 kts | 142° |
| 2026-05-06 23:34 | 26.62587 | -82.16589 | 35055 ft | 459 kts | 142° |
| 2026-05-06 23:34 | 26.59350 | -82.13501 | 34244 ft | 460 kts | 142° |
| 2026-05-06 23:34 | 26.56914 | -82.11179 | 33630 ft | 462 kts | 142° |
| 2026-05-06 23:34 | 26.54468 | -82.08848 | 33024 ft | 463 kts | 142° |
| 2026-05-06 23:35 | 26.52042 | -82.06491 | 32434 ft | 462 kts | 140° |
| 2026-05-06 23:35 | 26.49658 | -82.04088 | 31795 ft | 462 kts | 140° |
| 2026-05-06 23:35 | 26.47283 | -82.01692 | 31198 ft | 461 kts | 140° |
| 2026-05-06 23:35 | 26.44910 | -81.99300 | 30582 ft | 460 kts | 140° |
| 2026-05-06 23:36 | 26.42539 | -81.96913 | 29972 ft | 458 kts | 140° |
| 2026-05-06 23:36 | 26.40182 | -81.94541 | 29366 ft | 456 kts | 140° |
| 2026-05-06 23:36 | 26.37835 | -81.92180 | 28756 ft | 454 kts | 140° |
| 2026-05-06 23:36 | 26.35494 | -81.89826 | 28159 ft | 451 kts | 139° |
| 2026-05-06 23:37 | 26.33175 | -81.87496 | 27566 ft | 448 kts | 139° |
| 2026-05-06 23:37 | 26.30870 | -81.85182 | 26974 ft | 444 kts | 139° |
| 2026-05-06 23:37 | 26.28584 | -81.82887 | 26388 ft | 441 kts | 139° |
| 2026-05-06 23:37 | 26.26311 | -81.80608 | 25804 ft | 438 kts | 139° |
| 2026-05-06 23:38 | 26.24164 | -81.78225 | 25229 ft | 434 kts | 129° |
| 2026-05-06 23:38 | 26.22587 | -81.75401 | 24645 ft | 430 kts | 115° |
| 2026-05-06 23:38 | 26.21296 | -81.72417 | 24066 ft | 426 kts | 114° |
| 2026-05-06 23:38 | 26.20014 | -81.69466 | 23508 ft | 422 kts | 114° |
| 2026-05-06 23:39 | 26.18743 | -81.66548 | 22956 ft | 418 kts | 114° |
| 2026-05-06 23:39 | 26.17485 | -81.63659 | 22406 ft | 413 kts | 114° |
| 2026-05-06 23:39 | 26.16239 | -81.60799 | 21864 ft | 409 kts | 114° |
| 2026-05-06 23:39 | 26.15009 | -81.57978 | 21325 ft | 404 kts | 114° |
| 2026-05-06 23:40 | 26.13793 | -81.55189 | 20792 ft | 399 kts | 114° |
| 2026-05-06 23:40 | 26.12590 | -81.52433 | 20263 ft | 395 kts | 114° |
| 2026-05-06 23:40 | 26.11402 | -81.49713 | 19749 ft | 389 kts | 114° |
| 2026-05-06 23:40 | 26.10229 | -81.47026 | 19232 ft | 385 kts | 114° |
| 2026-05-06 23:41 | 26.09069 | -81.44372 | 18725 ft | 380 kts | 114° |
| 2026-05-06 23:41 | 26.07923 | -81.41751 | 18221 ft | 375 kts | 114° |
| 2026-05-06 23:41 | 26.06790 | -81.39160 | 17732 ft | 370 kts | 114° |
| 2026-05-06 23:41 | 26.05681 | -81.36613 | 17242 ft | 365 kts | 114° |
| 2026-05-06 23:42 | 26.04582 | -81.34089 | 16755 ft | 361 kts | 114° |
| 2026-05-06 23:42 | 26.03858 | -81.32427 | 16438 ft | 358 kts | 114° |
| 2026-05-06 23:42 | 26.02428 | -81.29146 | 15819 ft | 351 kts | 113° |
| 2026-05-06 23:42 | 26.01369 | -81.26718 | 15353 ft | 347 kts | 113° |
| 2026-05-06 23:43 | 26.00322 | -81.24318 | 14801 ft | 346 kts | 113° |
| 2026-05-06 23:43 | 25.99627 | -81.22725 | 14485 ft | 343 kts | 113° |
| 2026-05-06 23:43 | 25.98258 | -81.19592 | 13907 ft | 336 kts | 113° |
| 2026-05-06 23:43 | 25.97248 | -81.17282 | 13469 ft | 331 kts | 112° |
| 2026-05-06 23:44 | 25.96583 | -81.15761 | 13179 ft | 328 kts | 112° |
| 2026-05-06 23:44 | 25.95266 | -81.12750 | 12605 ft | 322 kts | 112° |
| 2026-05-06 23:44 | 25.94293 | -81.10527 | 12169 ft | 318 kts | 112° |
| 2026-05-06 23:44 | 25.93333 | -81.08336 | 11766 ft | 314 kts | 112° |
| 2026-05-06 23:45 | 25.92385 | -81.06172 | 11345 ft | 311 kts | 112° |
| 2026-05-06 23:45 | 25.91455 | -81.04026 | 10939 ft | 307 kts | 111° |
| 2026-05-06 23:45 | 25.90889 | -81.02589 | 10654 ft | 304 kts | 110° |
| 2026-05-06 23:45 | 25.90069 | -81.00447 | 10273 ft | 299 kts | 110° |
| 2026-05-06 23:46 | 25.88993 | -80.97643 | 9744 ft | 294 kts | 109° |
| 2026-05-06 23:46 | 25.88461 | -80.96256 | 9485 ft | 292 kts | 110° |
| 2026-05-06 23:46 | 25.87411 | -80.93524 | 8974 ft | 286 kts | 110° |
| 2026-05-06 23:46 | 25.86637 | -80.91506 | 8610 ft | 282 kts | 110° |
| 2026-05-06 23:47 | 25.85875 | -80.89524 | 8357 ft | 279 kts | 110° |
| 2026-05-06 23:47 | 25.85113 | -80.87537 | 8204 ft | 280 kts | 110° |
| 2026-05-06 23:47 | 25.84346 | -80.85538 | 7960 ft | 284 kts | 110° |
| 2026-05-06 23:47 | 25.83575 | -80.83534 | 7701 ft | 280 kts | 110° |
| 2026-05-06 23:48 | 25.82810 | -80.81546 | 7449 ft | 280 kts | 110° |
| 2026-05-06 23:48 | 25.82052 | -80.79574 | 7192 ft | 278 kts | 110° |
| 2026-05-06 23:48 | 25.81295 | -80.77609 | 6946 ft | 276 kts | 110° |
| 2026-05-06 23:48 | 25.80791 | -80.76300 | 6778 ft | 275 kts | 110° |
| 2026-05-06 23:49 | 25.79789 | -80.73698 | 6448 ft | 274 kts | 111° |
| 2026-05-06 23:49 | 25.79041 | -80.71755 | 6200 ft | 272 kts | 110° |
| 2026-05-06 23:49 | 25.78663 | -80.70449 | 6044 ft | 263 kts | 97° |
| 2026-05-06 23:49 | 25.78672 | -80.67827 | 5731 ft | 248 kts | 85° |
| 2026-05-06 23:50 | 25.78759 | -80.65942 | 5509 ft | 240 kts | 85° |
| 2026-05-06 23:50 | 25.78892 | -80.62930 | 5166 ft | 227 kts | 86° |
| 2026-05-06 23:50 | 25.78993 | -80.60633 | 4887 ft | 218 kts | 86° |
| 2026-05-06 23:51 | 25.79065 | -80.58974 | 4662 ft | 214 kts | 86° |
| 2026-05-06 23:51 | 25.79113 | -80.57874 | 4452 ft | 214 kts | 86° |
| 2026-05-06 23:51 | 25.79209 | -80.55660 | 3987 ft | 216 kts | 86° |
| 2026-05-06 23:51 | 25.79281 | -80.54006 | 3731 ft | 213 kts | 86° |
| 2026-05-06 23:52 | 25.79329 | -80.52909 | 3543 ft | 212 kts | 86° |
| 2026-05-06 23:52 | 25.79423 | -80.50737 | 3169 ft | 210 kts | 87° |
| 2026-05-06 23:52 | 25.79492 | -80.49137 | 2981 ft | 203 kts | 87° |
| 2026-05-06 23:52 | 25.79535 | -80.48126 | 2939 ft | 190 kts | 87° |
| 2026-05-06 23:53 | 25.79615 | -80.46205 | 2762 ft | 186 kts | 87° |
| 2026-05-06 23:53 | 25.79655 | -80.45241 | 2608 ft | 186 kts | 87° |
| 2026-05-06 23:53 | 25.79736 | -80.43345 | 2303 ft | 181 kts | 88° |
| 2026-05-06 23:53 | 25.79775 | -80.42431 | 2153 ft | 174 kts | 88° |
| 2026-05-06 23:54 | 25.79846 | -80.40746 | 1845 ft | 153 kts | 88° |
| 2026-05-06 23:54 | 25.79893 | -80.39639 | 1656 ft | 132 kts | 88° |
| 2026-05-06 23:54 | 25.79934 | -80.38673 | 1519 ft | 123 kts | 88° |
| 2026-05-06 23:54 | 25.79971 | -80.37739 | 1327 ft | 120 kts | 89° |
| 2026-05-06 23:55 | 25.79998 | -80.37116 | 1240 ft | 119 kts | 87° |
| 2026-05-06 23:55 | 25.80041 | -80.36193 | 1100 ft | 118 kts | 88° |
| 2026-05-06 23:55 | 25.80095 | -80.34998 | 859 ft | 116 kts | 88° |
| 2026-05-06 23:55 | 25.80137 | -80.34119 | 711 ft | 117 kts | 88° |
| 2026-05-06 23:56 | 25.80171 | -80.33266 | 547 ft | 117 kts | 89° |
| 2026-05-06 23:56 | 25.80203 | -80.32420 | 413 ft | 115 kts | 88° |
| 2026-05-06 23:56 | 25.80236 | -80.31582 | 272 ft | 114 kts | 89° |
| 2026-05-06 23:56 | 25.80269 | -80.30740 | 130 ft | 113 kts | 89° |
| 2026-05-06 23:57 | 25.80301 | -80.29947 | 18 ft | 109 kts | 88° |
| 2026-05-06 23:57 | 25.80328 | -80.29181 | 11 ft | 85 kts | 86° |
| 2026-05-06 23:57 | 25.80353 | -80.28610 | 11 ft | 63 kts | 88° |
| 2026-05-06 23:57 | 25.80390 | -80.28321 | 11 ft | 23 kts | 65° |
| 2026-05-06 23:58 | 25.80462 | -80.28250 | 11 ft | 10 kts | 342° |
| 2026-05-06 23:58 | 25.80475 | -80.28337 | 11 ft | 14 kts | 267° |
| 2026-05-06 23:58 | 25.80469 | -80.28470 | 11 ft | 19 kts | 268° |
| 2026-05-06 23:58 | 25.80462 | -80.28636 | 11 ft | 23 kts | 266° |
| 2026-05-06 23:59 | 25.80460 | -80.28748 | 11 ft | 21 kts | 270° |
| 2026-05-06 23:59 | 25.80449 | -80.28992 | 11 ft | 16 kts | 276° |
| 2026-05-06 23:59 | 25.80486 | -80.29045 | 11 ft | 10 kts | 356° |
| 2026-05-06 23:59 | 25.80540 | -80.29049 | 11 ft | 0 kts | 0° |